Time;durP1;ratioP1;P1;durP2;ratioP2;P2;SDS_P1;SDS_P2;PMS_P1;PMS_P2;Temp;Humidity;BMP_temperature;BMP_pressure;BME280_temperature;BME280_humidity;BME280_pressure;Samples;Min_cycle;Max_cycle;Signal;HPM_P1;HPM_P2
2023/05/08 00:00:37;;;;;;;26.37;24.67;;;;;;;;;;5058189;28;20466;-82
2023/05/08 00:03:04;;;;;;;25.83;24.23;;;;;;;;;;5057940;28;20840;-83
2023/05/08 00:05:31;;;;;;;25.83;24.40;;;;;;;;;;5057843;28;20536;-82
2023/05/08 00:08:00;;;;;;;25.37;23.77;;;;;;;;;;5058289;28;20484;-83
2023/05/08 00:10:27;;;;;;;24.57;23.17;;;;;;;;;;5057835;28;20553;-84
2023/05/08 00:12:55;;;;;;;25.70;24.00;;;;;;;;;;5057613;28;20458;-82
2023/05/08 00:15:22;;;;;;;24.77;23.27;;;;;;;;;;5057741;28;20461;-83
2023/05/08 00:17:49;;;;;;;24.87;23.27;;;;;;;;;;5057044;28;20508;-83
2023/05/08 00:20:16;;;;;;;24.67;23.00;;;;;;;;;;5057546;28;21032;-83
2023/05/08 00:22:43;;;;;;;25.80;24.30;;;;;;;;;;5058161;28;20428;-83
2023/05/08 00:25:11;;;;;;;25.03;23.60;;;;;;;;;;5058261;28;20892;-84
2023/05/08 00:27:38;;;;;;;25.10;23.60;;;;;;;;;;5057694;28;20454;-83
2023/05/08 00:30:06;;;;;;;25.43;23.93;;;;;;;;;;5057551;28;21263;-83
2023/05/08 00:32:33;;;;;;;22.93;21.63;;;;;;;;;;5058132;28;20446;-83
2023/05/08 00:35:00;;;;;;;24.00;22.60;;;;;;;;;;5057568;28;20943;-83
2023/05/08 00:37:27;;;;;;;24.90;23.40;;;;;;;;;;5057327;28;20421;-83
2023/05/08 00:39:54;;;;;;;23.70;22.40;;;;;;;;;;5057079;28;20453;-84
2023/05/08 00:42:23;;;;;;;25.47;23.93;;;;;;;;;;5057849;28;20493;-83
2023/05/08 00:44:50;;;;;;;25.40;23.80;;;;;;;;;;5057385;28;20487;-81
2023/05/08 00:47:17;;;;;;;23.93;22.53;;;;;;;;;;5057267;28;20875;-83
2023/05/08 00:49:44;;;;;;;25.07;23.50;;;;;;;;;;5057609;28;20499;-82
2023/05/08 00:52:11;;;;;;;25.07;23.57;;;;;;;;;;5058178;28;20451;-82
2023/05/08 00:54:38;;;;;;;23.60;22.20;;;;;;;;;;5057755;28;20460;-82
2023/05/08 00:57:07;;;;;;;25.53;23.77;;;;;;;;;;5057280;28;20504;-83
2023/05/08 00:59:36;;;;;;;26.53;24.47;;;;;;;;;;5056816;28;20577;-82
2023/05/08 01:02:03;;;;;;;24.00;22.60;;;;;;;;;;5057651;28;20951;-82
2023/05/08 01:04:31;;;;;;;24.90;23.40;;;;;;;;;;5058021;28;20440;-82
2023/05/08 01:06:58;;;;;;;25.80;24.20;;;;;;;;;;5067878;28;20463;-82
2023/05/08 01:09:25;;;;;;;24.77;23.27;;;;;;;;;;5077110;28;20444;-80
2023/05/08 01:11:55;;;;;;;25.63;24.00;;;;;;;;;;5077695;28;20420;-82
2023/05/08 01:14:26;;;;;;;24.57;23.13;;;;;;;;;;5067354;28;20483;-83
2023/05/08 01:16:59;;;;;;;24.80;23.30;;;;;;;;;;5062960;28;20458;-84
2023/05/08 01:19:49;;;;;;;24.33;22.73;;;;;;;;;;5063962;28;20520;-82
2023/05/08 01:22:21;;;;;;;24.80;23.23;;;;;;;;;;5063736;28;20434;-82
2023/05/08 01:24:58;;;;;;;24.37;22.77;;;;;;;;;;5062518;28;20476;-83
2023/05/08 01:27:43;;;;;;;25.40;23.80;;;;;;;;;;5063159;28;20517;-82
2023/05/08 01:30:38;;;;;;;25.67;24.07;;;;;;;;;;5052878;28;21038;-83
2023/05/08 01:33:11;;;;;;;26.43;24.70;;;;;;;;;;5063879;28;20455;-84
2023/05/08 01:35:43;;;;;;;25.07;23.57;;;;;;;;;;5065741;28;20478;-84
2023/05/08 01:38:13;;;;;;;25.43;23.73;;;;;;;;;;5065411;28;20447;-84
2023/05/08 01:40:44;;;;;;;26.63;25.03;;;;;;;;;;5064209;28;20495;-84
2023/05/08 01:43:14;;;;;;;25.23;23.70;;;;;;;;;;5065031;28;20465;-84
2023/05/08 01:45:45;;;;;;;24.57;23.13;;;;;;;;;;5063421;28;20491;-83
2023/05/08 01:48:15;;;;;;;26.50;24.90;;;;;;;;;;5064334;28;20446;-82
2023/05/08 01:50:45;;;;;;;24.90;23.30;;;;;;;;;;5063123;28;20482;-82
2023/05/08 01:53:17;;;;;;;25.63;24.13;;;;;;;;;;5063121;28;20438;-82
2023/05/08 01:55:44;;;;;;;25.00;23.50;;;;;;;;;;5064966;28;20438;-83
2023/05/08 01:58:12;;;;;;;26.77;25.20;;;;;;;;;;5067832;28;20442;-82
2023/05/08 02:00:41;;;;;;;26.83;25.33;;;;;;;;;;5066487;28;20471;-83
2023/05/08 02:03:09;;;;;;;25.37;23.90;;;;;;;;;;5067119;28;20508;-83
2023/05/08 02:05:38;;;;;;;26.77;24.97;;;;;;;;;;5065689;28;20605;-83
2023/05/08 02:08:07;;;;;;;24.87;23.37;;;;;;;;;;5065989;28;21080;-83
2023/05/08 02:10:35;;;;;;;25.87;24.27;;;;;;;;;;5065028;28;20482;-83
2023/05/08 02:13:02;;;;;;;25.87;24.27;;;;;;;;;;5066160;28;20459;-83
2023/05/08 02:15:30;;;;;;;26.33;24.83;;;;;;;;;;5065695;28;20439;-83
2023/05/08 02:17:58;;;;;;;26.30;24.60;;;;;;;;;;5065462;28;20459;-83
2023/05/08 02:20:26;;;;;;;25.87;24.27;;;;;;;;;;5064469;28;20540;-83
2023/05/08 02:22:56;;;;;;;26.00;24.20;;;;;;;;;;5065068;28;20446;-83
2023/05/08 02:25:23;;;;;;;25.50;23.90;;;;;;;;;;5065603;28;20446;-83
2023/05/08 02:27:51;;;;;;;26.60;25.00;;;;;;;;;;5064837;28;20435;-82
2023/05/08 02:30:18;;;;;;;25.63;24.03;;;;;;;;;;5065265;28;20478;-82
2023/05/08 02:32:46;;;;;;;27.03;25.20;;;;;;;;;;5065350;28;21034;-83
2023/05/08 02:35:15;;;;;;;26.30;24.53;;;;;;;;;;5065941;28;20508;-83
2023/05/08 02:37:43;;;;;;;25.27;23.77;;;;;;;;;;5065539;28;20440;-83
2023/05/08 02:40:12;;;;;;;27.03;25.20;;;;;;;;;;5065501;28;20524;-83
2023/05/08 02:42:39;;;;;;;26.37;24.67;;;;;;;;;;5061919;28;20445;-83
2023/05/08 02:45:07;;;;;;;26.23;24.53;;;;;;;;;;5063448;28;20425;-82
2023/05/08 02:47:38;;;;;;;25.73;24.10;;;;;;;;;;5062919;28;21158;-83
2023/05/08 02:50:09;;;;;;;25.70;24.00;;;;;;;;;;5063110;28;20502;-83
2023/05/08 02:52:40;;;;;;;26.27;24.57;;;;;;;;;;5062853;28;20557;-83
2023/05/08 02:55:12;;;;;;;25.03;23.53;;;;;;;;;;5063179;28;20851;-82
2023/05/08 02:57:47;;;;;;;25.20;23.57;;;;;;;;;;5063126;28;20429;-83
2023/05/08 03:00:17;;;;;;;27.03;25.17;;;;;;;;;;5063292;28;20473;-83
2023/05/08 03:02:48;;;;;;;27.23;25.43;;;;;;;;;;5063699;28;20482;-82
2023/05/08 03:05:17;;;;;;;24.43;23.00;;;;;;;;;;5064999;28;20469;-83
2023/05/08 03:07:45;;;;;;;26.20;24.60;;;;;;;;;;5062732;28;20509;-83
2023/05/08 03:10:14;;;;;;;27.13;25.30;;;;;;;;;;5065783;28;20480;-83
2023/05/08 03:12:43;;;;;;;26.20;24.40;;;;;;;;;;5065081;28;20457;-83
2023/05/08 03:15:19;;;;;;;26.97;25.10;;;;;;;;;;5065151;28;20845;-84
2023/05/08 03:17:48;;;;;;;27.07;25.30;;;;;;;;;;5063895;28;20516;-83
2023/05/08 03:20:17;;;;;;;28.07;26.20;;;;;;;;;;5065354;28;20471;-83
2023/05/08 03:22:44;;;;;;;26.70;24.93;;;;;;;;;;5065227;28;20473;-82
2023/05/08 03:25:12;;;;;;;26.20;24.47;;;;;;;;;;5065737;28;20490;-84
2023/05/08 03:27:40;;;;;;;26.37;24.67;;;;;;;;;;5063066;28;20498;-83
2023/05/08 03:30:10;;;;;;;26.13;24.43;;;;;;;;;;5064927;28;20493;-83
2023/05/08 03:32:38;;;;;;;26.73;25.03;;;;;;;;;;5064549;28;20437;-84
2023/05/08 03:35:06;;;;;;;26.33;24.73;;;;;;;;;;5064527;28;20440;-83
2023/05/08 03:37:33;;;;;;;28.80;26.90;;;;;;;;;;5064393;28;20413;-84
2023/05/08 03:40:00;;;;;;;27.57;25.77;;;;;;;;;;5063187;28;20483;-83
2023/05/08 03:42:27;;;;;;;28.37;26.27;;;;;;;;;;5063923;28;20455;-83
2023/05/08 03:44:54;;;;;;;28.40;26.60;;;;;;;;;;5063335;28;20447;-83
2023/05/08 03:47:24;;;;;;;26.50;24.80;;;;;;;;;;5062593;28;20486;-83
2023/05/08 03:49:52;;;;;;;27.03;25.13;;;;;;;;;;5062952;28;20502;-84
2023/05/08 03:52:19;;;;;;;26.40;24.70;;;;;;;;;;5063719;28;20454;-80
2023/05/08 03:54:46;;;;;;;27.00;25.30;;;;;;;;;;5065108;28;20455;-80
2023/05/08 03:57:13;;;;;;;26.63;24.90;;;;;;;;;;5067022;28;20526;-80
2023/05/08 03:59:43;;;;;;;27.37;25.47;;;;;;;;;;5064625;28;20471;-80
2023/05/08 04:02:15;;;;;;;26.70;24.90;;;;;;;;;;5064570;28;20450;-80
2023/05/08 04:04:45;;;;;;;27.40;25.70;;;;;;;;;;5065360;28;20435;-80
2023/05/08 04:07:14;;;;;;;26.07;24.50;;;;;;;;;;5064075;28;20886;-80
2023/05/08 04:09:44;;;;;;;26.37;24.67;;;;;;;;;;5063585;28;20486;-81
2023/05/08 04:12:15;;;;;;;26.13;24.60;;;;;;;;;;5064345;28;20444;-81
2023/05/08 04:14:44;;;;;;;26.83;25.03;;;;;;;;;;5064652;28;20442;-80
2023/05/08 04:17:14;;;;;;;26.03;24.43;;;;;;;;;;5063446;28;20439;-80
2023/05/08 04:19:45;;;;;;;25.83;24.23;;;;;;;;;;5063138;28;20838;-80
2023/05/08 04:22:15;;;;;;;26.13;24.43;;;;;;;;;;5063185;28;20470;-80
2023/05/08 04:24:43;;;;;;;28.07;26.20;;;;;;;;;;5063679;28;20443;-80
2023/05/08 04:27:11;;;;;;;27.73;25.77;;;;;;;;;;5063399;28;20505;-79
2023/05/08 04:29:38;;;;;;;27.57;25.57;;;;;;;;;;5063823;28;20478;-79
2023/05/08 04:32:05;;;;;;;26.00;24.40;;;;;;;;;;5063378;28;20520;-78
2023/05/08 04:34:33;;;;;;;27.33;25.53;;;;;;;;;;5063682;28;20933;-80
2023/05/08 04:37:00;;;;;;;28.67;26.67;;;;;;;;;;5063673;28;20413;-80
2023/05/08 04:39:28;;;;;;;27.07;25.17;;;;;;;;;;5063310;28;20498;-80
2023/05/08 04:42:01;;;;;;;27.80;25.80;;;;;;;;;;5063885;28;20458;-80
2023/05/08 04:44:28;;;;;;;27.00;25.10;;;;;;;;;;5063691;28;20474;-79
2023/05/08 04:46:55;;;;;;;27.80;26.00;;;;;;;;;;5061949;28;20461;-80
2023/05/08 04:49:22;;;;;;;27.20;25.33;;;;;;;;;;5062701;28;20857;-80
2023/05/08 04:51:49;;;;;;;27.27;25.50;;;;;;;;;;5063414;28;20451;-79
2023/05/08 04:54:16;;;;;;;26.57;24.80;;;;;;;;;;5062861;28;20503;-79
2023/05/08 04:56:44;;;;;;;27.73;25.43;;;;;;;;;;5062148;28;20443;-80
2023/05/08 04:59:11;;;;;;;27.57;25.67;;;;;;;;;;5062402;28;20483;-80
2023/05/08 05:01:38;;;;;;;25.43;23.83;;;;;;;;;;5076487;28;20446;-80
2023/05/08 05:04:06;;;;;;;26.57;24.63;;;;;;;;;;5085361;28;20852;-80
2023/05/08 05:06:33;;;;;;;26.53;24.93;;;;;;;;;;5082974;28;20837;-79
2023/05/08 05:09:00;;;;;;;26.40;24.53;;;;;;;;;;5082924;28;20478;-79
2023/05/08 05:11:27;;;;;;;25.63;23.73;;;;;;;;;;5082960;28;20776;-79
2023/05/08 05:13:55;;;;;;;27.27;25.47;;;;;;;;;;5082864;28;20930;-79
2023/05/08 05:16:22;;;;;;;26.90;25.13;;;;;;;;;;5082094;28;20476;-79
2023/05/08 05:18:49;;;;;;;27.80;25.73;;;;;;;;;;5084024;28;20523;-80
2023/05/08 05:21:16;;;;;;;27.50;25.70;;;;;;;;;;5084366;28;20504;-80
2023/05/08 05:23:43;;;;;;;26.10;24.40;;;;;;;;;;5083944;28;20472;-80
2023/05/08 05:26:10;;;;;;;27.90;25.97;;;;;;;;;;5082900;28;20464;-80
2023/05/08 05:28:37;;;;;;;28.90;27.00;;;;;;;;;;5081252;28;20494;-79
2023/05/08 05:31:06;;;;;;;28.13;26.13;;;;;;;;;;5083235;28;20938;-80
2023/05/08 05:33:33;;;;;;;28.03;26.03;;;;;;;;;;5083189;28;20475;-80
2023/05/08 05:36:00;;;;;;;27.13;25.17;;;;;;;;;;5081863;28;20671;-79
2023/05/08 05:38:27;;;;;;;27.27;25.47;;;;;;;;;;5081672;28;20536;-81
2023/05/08 05:40:54;;;;;;;26.73;24.90;;;;;;;;;;5080347;28;20478;-80
2023/05/08 05:43:21;;;;;;;28.40;26.20;;;;;;;;;;5081209;28;20416;-79
2023/05/08 05:45:48;;;;;;;27.30;25.10;;;;;;;;;;5078978;28;20445;-80
2023/05/08 05:48:16;;;;;;;28.40;26.17;;;;;;;;;;5091690;28;20469;-77
2023/05/08 05:50:43;;;;;;;28.40;26.43;;;;;;;;;;5096435;28;20497;-78
2023/05/08 05:53:10;;;;;;;27.77;25.97;;;;;;;;;;5095038;28;20454;-80
2023/05/08 05:55:37;;;;;;;27.90;25.97;;;;;;;;;;5081493;28;20458;-79
2023/05/08 05:58:04;;;;;;;27.97;25.93;;;;;;;;;;5082176;28;20450;-79
2023/05/08 06:00:31;;;;;;;25.90;24.20;;;;;;;;;;5081755;28;20470;-80
2023/05/08 06:02:58;;;;;;;26.93;25.03;;;;;;;;;;5081509;28;20433;-79
2023/05/08 06:05:27;;;;;;;29.10;26.67;;;;;;;;;;5082002;28;20454;-79
2023/05/08 06:07:54;;;;;;;27.23;25.53;;;;;;;;;;5082878;28;20987;-80
2023/05/08 06:10:21;;;;;;;26.80;24.90;;;;;;;;;;5080855;28;20609;-79
2023/05/08 06:12:48;;;;;;;28.60;26.50;;;;;;;;;;5081411;28;20973;-80
2023/05/08 06:15:15;;;;;;;27.00;25.30;;;;;;;;;;5082871;28;20489;-82
2023/05/08 06:17:42;;;;;;;27.60;25.77;;;;;;;;;;5081529;28;20466;-80
2023/05/08 06:20:10;;;;;;;27.53;25.50;;;;;;;;;;5081730;28;20444;-80
2023/05/08 06:22:40;;;;;;;28.57;26.47;;;;;;;;;;5080636;28;20584;-79
2023/05/08 06:25:08;;;;;;;27.83;26.03;;;;;;;;;;5080892;28;20416;-79
2023/05/08 06:27:35;;;;;;;28.27;26.50;;;;;;;;;;5080226;28;20511;-80
2023/05/08 06:30:03;;;;;;;27.23;25.43;;;;;;;;;;5080596;28;20428;-80
2023/05/08 06:32:30;;;;;;;28.60;26.57;;;;;;;;;;5081131;28;20862;-79
2023/05/08 06:34:57;;;;;;;27.67;26.03;;;;;;;;;;5080457;28;20453;-79
2023/05/08 06:37:25;;;;;;;27.97;26.30;;;;;;;;;;5079927;28;20905;-80
2023/05/08 06:39:53;;;;;;;28.07;26.33;;;;;;;;;;5079962;28;20555;-80
2023/05/08 06:42:20;;;;;;;28.27;26.30;;;;;;;;;;5082199;28;20441;-84
2023/05/08 06:44:49;;;;;;;26.80;25.10;;;;;;;;;;5085642;28;20498;-80
2023/05/08 06:47:16;;;;;;;27.20;25.37;;;;;;;;;;5084618;28;20528;-80
2023/05/08 06:49:43;;;;;;;27.57;25.67;;;;;;;;;;5085735;28;20486;-80
2023/05/08 06:52:10;;;;;;;27.03;25.10;;;;;;;;;;5085243;28;20934;-80
2023/05/08 06:54:37;;;;;;;26.60;25.00;;;;;;;;;;5086373;28;20432;-80
2023/05/08 06:57:07;;;;;;;27.03;25.07;;;;;;;;;;5083966;28;20450;-80
2023/05/08 06:59:34;;;;;;;26.63;24.70;;;;;;;;;;5082481;28;20887;-80
2023/05/08 07:02:01;;;;;;;27.03;25.10;;;;;;;;;;5080299;28;20475;-80
2023/05/08 07:04:29;;;;;;;27.10;25.40;;;;;;;;;;5079909;28;20931;-82
2023/05/08 07:06:55;;;;;;;26.50;24.90;;;;;;;;;;5076442;28;20432;-80
2023/05/08 07:09:22;;;;;;;26.70;24.80;;;;;;;;;;5078124;28;20470;-83
2023/05/08 07:11:50;;;;;;;27.80;26.00;;;;;;;;;;5077163;28;20415;-81
2023/05/08 07:14:18;;;;;;;26.63;25.07;;;;;;;;;;5077026;28;20447;-80
2023/05/08 07:16:45;;;;;;;26.67;24.97;;;;;;;;;;5077363;28;20439;-81
2023/05/08 07:19:12;;;;;;;26.13;24.53;;;;;;;;;;5077451;28;20816;-83
2023/05/08 07:21:40;;;;;;;25.93;24.33;;;;;;;;;;5077573;28;20408;-80
2023/05/08 07:24:07;;;;;;;26.90;25.30;;;;;;;;;;5077782;28;20531;-81
2023/05/08 07:26:34;;;;;;;27.17;25.47;;;;;;;;;;5067330;28;20435;-81
2023/05/08 07:29:01;;;;;;;25.90;24.33;;;;;;;;;;5071643;28;21018;-82
2023/05/08 07:31:30;;;;;;;27.70;26.00;;;;;;;;;;5077370;28;20483;-81
2023/05/08 07:33:57;;;;;;;26.17;24.63;;;;;;;;;;5077839;28;20416;-81
2023/05/08 07:36:24;;;;;;;28.17;26.37;;;;;;;;;;5077210;28;20424;-81
2023/05/08 07:38:51;;;;;;;26.37;24.57;;;;;;;;;;5077513;28;20477;-80
2023/05/08 07:41:18;;;;;;;26.63;25.03;;;;;;;;;;5077282;28;20509;-81
2023/05/08 07:43:45;;;;;;;25.93;24.30;;;;;;;;;;5077924;28;21245;-81
2023/05/08 07:46:16;;;;;;;27.10;25.50;;;;;;;;;;5077401;28;20416;-81
2023/05/08 07:48:45;;;;;;;26.27;24.57;;;;;;;;;;5077345;28;20516;-81
2023/05/08 07:51:12;;;;;;;27.50;25.80;;;;;;;;;;5078398;28;20454;-82
2023/05/08 07:53:39;;;;;;;27.33;25.63;;;;;;;;;;5076497;28;20420;-82
2023/05/08 07:56:06;;;;;;;28.00;26.20;;;;;;;;;;5076462;28;20515;-80
2023/05/08 07:58:33;;;;;;;26.60;24.90;;;;;;;;;;5077018;28;20453;-81
2023/05/08 08:01:01;;;;;;;26.67;25.00;;;;;;;;;;5076670;28;20996;-81
2023/05/08 08:03:28;;;;;;;26.20;24.50;;;;;;;;;;5075131;28;20495;-81
2023/05/08 08:05:56;;;;;;;26.27;24.67;;;;;;;;;;5076209;28;20854;-82
2023/05/08 08:08:23;;;;;;;27.13;25.43;;;;;;;;;;5080677;28;20498;-82
2023/05/08 08:10:51;;;;;;;25.60;24.00;;;;;;;;;;5081527;28;20813;-81
2023/05/08 08:13:18;;;;;;;25.70;24.20;;;;;;;;;;5081514;28;20456;-81
2023/05/08 08:15:45;;;;;;;25.37;23.67;;;;;;;;;;5081431;28;20465;-80
2023/05/08 08:18:12;;;;;;;25.73;24.10;;;;;;;;;;5082274;28;20443;-81
2023/05/08 08:20:39;;;;;;;24.60;23.20;;;;;;;;;;5082109;28;20474;-81
2023/05/08 08:23:08;;;;;;;27.10;25.27;;;;;;;;;;5080515;28;20954;-82
2023/05/08 08:25:35;;;;;;;25.90;24.40;;;;;;;;;;5081408;28;20414;-82
2023/05/08 08:28:02;;;;;;;24.80;23.30;;;;;;;;;;5081897;28;20460;-82
2023/05/08 08:30:29;;;;;;;26.20;24.50;;;;;;;;;;5082214;28;20464;-81
2023/05/08 08:33:00;;;;;;;25.00;23.40;;;;;;;;;;5084072;28;20577;-82
2023/05/08 08:35:28;;;;;;;25.13;23.63;;;;;;;;;;5082472;28;20515;-80
2023/05/08 08:37:55;;;;;;;24.30;22.83;;;;;;;;;;5082165;28;20427;-82
2023/05/08 08:40:24;;;;;;;25.63;23.83;;;;;;;;;;5081294;28;20573;-83
2023/05/08 08:42:51;;;;;;;26.20;24.07;;;;;;;;;;5081176;28;20438;-86
2023/05/08 08:45:18;;;;;;;25.03;23.53;;;;;;;;;;5074912;28;20468;-83
2023/05/08 08:47:46;;;;;;;25.37;23.73;;;;;;;;;;5063458;28;20466;-84
2023/05/08 08:50:14;;;;;;;24.13;22.73;;;;;;;;;;5059676;28;20536;-81
2023/05/08 08:52:43;;;;;;;24.33;22.63;;;;;;;;;;5059072;28;20426;-82
2023/05/08 08:55:14;;;;;;;24.57;23.00;;;;;;;;;;5061127;28;20406;-82
2023/05/08 08:57:46;;;;;;;25.10;23.60;;;;;;;;;;5060100;28;20481;-83
2023/05/08 09:00:13;;;;;;;23.90;22.40;;;;;;;;;;5060401;28;20441;-81
2023/05/08 09:02:40;;;;;;;23.10;21.77;;;;;;;;;;5060452;28;20476;-82
2023/05/08 09:05:08;;;;;;;24.20;22.70;;;;;;;;;;5059710;28;20444;-83
2023/05/08 09:07:35;;;;;;;24.97;23.47;;;;;;;;;;5060951;28;20440;-83
2023/05/08 09:10:03;;;;;;;25.03;23.63;;;;;;;;;;5060698;28;20948;-83
2023/05/08 09:12:30;;;;;;;24.80;23.20;;;;;;;;;;5060667;28;20409;-83
2023/05/08 09:14:58;;;;;;;25.87;24.40;;;;;;;;;;5061036;28;20442;-83
2023/05/08 09:17:25;;;;;;;25.37;23.70;;;;;;;;;;5060589;28;20467;-84
2023/05/08 09:19:53;;;;;;;26.60;24.67;;;;;;;;;;5060468;28;20979;-83
2023/05/08 09:22:22;;;;;;;24.83;23.33;;;;;;;;;;5060766;28;20429;-83
2023/05/08 09:24:56;;;;;;;25.13;23.53;;;;;;;;;;5059714;28;20444;-83
2023/05/08 09:27:24;;;;;;;25.10;23.40;;;;;;;;;;5060183;28;20909;-83
2023/05/08 09:30:00;;;;;;;26.27;24.57;;;;;;;;;;5060657;28;20467;-83
2023/05/08 09:32:28;;;;;;;24.90;23.50;;;;;;;;;;5060404;28;20438;-83
2023/05/08 09:34:55;;;;;;;24.50;22.80;;;;;;;;;;5060183;28;20525;-83
2023/05/08 09:37:22;;;;;;;24.87;23.33;;;;;;;;;;5060121;28;20676;-82
2023/05/08 09:39:49;;;;;;;26.03;24.40;;;;;;;;;;5060291;28;20476;-83
2023/05/08 09:42:16;;;;;;;26.30;24.40;;;;;;;;;;5060769;28;20433;-82
2023/05/08 09:44:44;;;;;;;25.00;23.30;;;;;;;;;;5060194;28;20445;-84
2023/05/08 09:47:13;;;;;;;24.73;23.23;;;;;;;;;;5060142;28;20513;-84
2023/05/08 09:49:40;;;;;;;24.63;23.13;;;;;;;;;;5061324;28;20458;-83
2023/05/08 09:52:08;;;;;;;25.63;23.93;;;;;;;;;;5060524;28;20433;-83
2023/05/08 09:54:35;;;;;;;25.20;23.70;;;;;;;;;;5059621;28;20477;-82
2023/05/08 09:57:11;;;;;;;24.57;23.07;;;;;;;;;;5062636;28;20751;-87
2023/05/08 09:59:38;;;;;;;25.80;24.20;;;;;;;;;;5060253;28;20465;-82
2023/05/08 10:02:11;;;;;;;25.20;23.60;;;;;;;;;;5062164;28;21015;-82
2023/05/08 10:04:39;;;;;;;25.87;24.27;;;;;;;;;;5061054;28;20476;-80
2023/05/08 10:07:06;;;;;;;26.03;24.33;;;;;;;;;;5079564;28;20467;-81
2023/05/08 10:09:33;;;;;;;25.73;24.03;;;;;;;;;;5080289;28;20894;-83
2023/05/08 10:12:00;;;;;;;26.40;24.63;;;;;;;;;;5080667;28;20437;-82
2023/05/08 10:14:27;;;;;;;25.60;24.00;;;;;;;;;;5080244;28;20476;-78
2023/05/08 10:16:54;;;;;;;26.30;24.70;;;;;;;;;;5082366;28;20804;-86
2023/05/08 10:19:22;;;;;;;25.53;23.93;;;;;;;;;;5085337;28;20442;-82
2023/05/08 10:21:51;;;;;;;25.63;23.93;;;;;;;;;;5086540;28;20425;-83
2023/05/08 10:24:19;;;;;;;25.07;23.47;;;;;;;;;;5085450;28;20498;-82
2023/05/08 10:26:55;;;;;;;26.57;24.97;;;;;;;;;;5084870;28;20468;-84
2023/05/08 10:29:24;;;;;;;25.80;24.00;;;;;;;;;;5084976;28;20462;-84
2023/05/08 10:31:54;;;;;;;25.43;23.90;;;;;;;;;;5081913;28;20931;-83
2023/05/08 10:34:22;;;;;;;26.33;24.67;;;;;;;;;;5085939;28;20456;-83
2023/05/08 10:36:52;;;;;;;26.70;25.00;;;;;;;;;;5081606;28;20476;-84
2023/05/08 10:39:20;;;;;;;28.10;26.27;;;;;;;;;;5085961;28;20431;-88
2023/05/08 10:41:47;;;;;;;26.80;25.10;;;;;;;;;;5082497;28;20411;-87
2023/05/08 10:44:15;;;;;;;26.23;24.53;;;;;;;;;;5084867;28;20478;-82
2023/05/08 10:46:46;;;;;;;27.10;25.40;;;;;;;;;;5084448;28;20530;-82
2023/05/08 10:49:17;;;;;;;27.07;25.33;;;;;;;;;;5085961;28;20514;-82
2023/05/08 10:51:48;;;;;;;28.07;26.07;;;;;;;;;;5086582;28;20423;-81
2023/05/08 10:54:20;;;;;;;27.60;25.80;;;;;;;;;;5086187;28;20404;-82
2023/05/08 10:56:49;;;;;;;28.73;26.73;;;;;;;;;;5084990;28;20407;-80
2023/05/08 10:59:19;;;;;;;28.03;25.97;;;;;;;;;;5087437;28;20470;-81
2023/05/08 11:01:48;;;;;;;30.10;28.10;;;;;;;;;;5087829;28;20452;-81
2023/05/08 11:04:20;;;;;;;29.17;27.00;;;;;;;;;;5087094;28;20463;-80
2023/05/08 11:06:51;;;;;;;28.47;26.60;;;;;;;;;;5086260;28;20987;-80
2023/05/08 11:09:23;;;;;;;28.03;26.27;;;;;;;;;;5085960;28;20573;-81
2023/05/08 11:12:08;;;;;;;26.33;24.73;;;;;;;;;;5080430;28;20487;-78
2023/05/08 11:14:37;;;;;;;26.30;24.50;;;;;;;;;;5081822;28;20441;-78
2023/05/08 11:17:07;;;;;;;26.40;24.70;;;;;;;;;;5082216;28;20472;-80
2023/05/08 11:19:35;;;;;;;27.33;25.53;;;;;;;;;;5082823;28;20543;-82
2023/05/08 11:22:26;;;;;;;30.60;28.60;;;;;;;;;;5082197;28;20461;-80
2023/05/08 11:24:55;;;;;;;27.13;25.43;;;;;;;;;;5082795;28;20434;-80
2023/05/08 11:27:46;;;;;;;25.87;24.27;;;;;;;;;;5081363;28;20474;-80
2023/05/08 11:30:23;;;;;;;27.60;25.87;;;;;;;;;;5067345;28;20528;-80
2023/05/08 11:32:58;;;;;;;28.17;26.37;;;;;;;;;;5083938;28;20803;-81
2023/05/08 11:35:43;;;;;;;28.03;26.33;;;;;;;;;;5083402;28;20453;-80
2023/05/08 11:38:21;;;;;;;27.90;25.97;;;;;;;;;;5083173;28;20453;-79
2023/05/08 11:40:56;;;;;;;32.17;29.83;;;;;;;;;;5084001;28;20436;-81
2023/05/08 11:43:27;;;;;;;31.53;29.40;;;;;;;;;;5080515;28;20438;-87
2023/05/08 11:45:55;;;;;;;30.47;28.57;;;;;;;;;;5079437;28;20961;-90
2023/05/08 11:48:22;;;;;;;31.30;29.23;;;;;;;;;;5093162;28;20424;-91
2023/05/08 11:50:50;;;;;;;31.10;29.00;;;;;;;;;;5081555;28;20451;-78
2023/05/08 11:53:17;;;;;;;29.60;27.70;;;;;;;;;;5081882;28;20443;-81
2023/05/08 11:55:45;;;;;;;31.20;29.10;;;;;;;;;;5081384;28;20445;-81
2023/05/08 11:58:13;;;;;;;30.23;28.23;;;;;;;;;;5081327;28;20436;-81
2023/05/08 12:00:44;;;;;;;28.90;27.10;;;;;;;;;;5081205;28;20446;-81
2023/05/08 12:03:13;;;;;;;31.73;29.73;;;;;;;;;;5081118;28;20446;-81
2023/05/08 12:05:40;;;;;;;29.37;27.57;;;;;;;;;;5081744;28;20421;-82
2023/05/08 12:08:07;;;;;;;30.70;28.50;;;;;;;;;;5080877;28;21042;-82
2023/05/08 12:10:41;;;;;;;30.57;28.67;;;;;;;;;;5080568;28;20485;-82
2023/05/08 12:13:19;;;;;;;28.20;26.50;;;;;;;;;;5080795;28;20833;-82
2023/05/08 12:15:46;;;;;;;29.63;27.60;;;;;;;;;;5081481;28;20468;-83
2023/05/08 12:18:13;;;;;;;29.50;27.60;;;;;;;;;;5080611;28;20466;-83
2023/05/08 12:20:40;;;;;;;29.23;27.40;;;;;;;;;;5081377;28;20444;-81
2023/05/08 12:23:09;;;;;;;30.70;28.47;;;;;;;;;;5081480;28;20458;-81
2023/05/08 12:25:36;;;;;;;31.13;28.73;;;;;;;;;;5080052;28;20469;-81
2023/05/08 12:28:03;;;;;;;31.20;29.20;;;;;;;;;;5080390;28;20837;-81
2023/05/08 12:30:31;;;;;;;29.93;28.00;;;;;;;;;;5080709;28;20520;-81
2023/05/08 12:32:59;;;;;;;31.03;28.83;;;;;;;;;;5081334;28;20424;-81
2023/05/08 12:35:26;;;;;;;29.17;27.27;;;;;;;;;;5080661;28;21166;-82
2023/05/08 12:37:53;;;;;;;31.07;28.97;;;;;;;;;;5079351;28;20458;-80
2023/05/08 12:40:25;;;;;;;30.87;28.87;;;;;;;;;;5079555;28;20470;-82
2023/05/08 12:42:53;;;;;;;30.83;28.93;;;;;;;;;;5080690;28;20428;-87
2023/05/08 12:45:20;;;;;;;29.67;27.57;;;;;;;;;;5079310;28;20433;-89
2023/05/08 12:47:49;;;;;;;30.10;28.10;;;;;;;;;;5078195;28;20442;-89
2023/05/08 12:50:16;;;;;;;31.07;29.00;;;;;;;;;;5074968;28;20539;-77
2023/05/08 12:52:44;;;;;;;31.23;29.23;;;;;;;;;;5075145;28;20458;-78
2023/05/08 12:55:21;;;;;;;30.03;28.20;;;;;;;;;;5075246;28;20454;-77
2023/05/08 12:57:48;;;;;;;30.73;28.73;;;;;;;;;;5075126;28;20449;-77
2023/05/08 13:00:16;;;;;;;31.17;29.17;;;;;;;;;;5076511;28;20462;-80
2023/05/08 13:02:53;;;;;;;32.90;30.80;;;;;;;;;;5080051;28;20525;-79
2023/05/08 13:05:21;;;;;;;31.50;29.50;;;;;;;;;;5078462;28;20532;-80
2023/05/08 13:07:48;;;;;;;31.13;29.23;;;;;;;;;;5080222;28;20830;-80
2023/05/08 13:10:15;;;;;;;30.70;28.80;;;;;;;;;;5081696;28;20478;-88
2023/05/08 13:12:42;;;;;;;29.27;27.47;;;;;;;;;;5081560;28;20444;-85
2023/05/08 13:15:10;;;;;;;30.77;28.83;;;;;;;;;;5083206;28;20449;-83
2023/05/08 13:17:37;;;;;;;30.77;28.87;;;;;;;;;;5083448;28;20476;-80
2023/05/08 13:20:06;;;;;;;29.77;27.97;;;;;;;;;;5084076;28;20924;-83
2023/05/08 13:22:33;;;;;;;28.80;27.00;;;;;;;;;;5084241;28;20460;-82
2023/05/08 13:25:00;;;;;;;28.13;26.43;;;;;;;;;;5084564;28;20462;-82
2023/05/08 13:27:27;;;;;;;30.27;27.87;;;;;;;;;;5082731;28;20440;-81
2023/05/08 13:29:54;;;;;;;29.00;27.20;;;;;;;;;;5083712;28;20486;-82
2023/05/08 13:32:21;;;;;;;29.93;28.03;;;;;;;;;;5084364;28;20440;-81
2023/05/08 13:34:48;;;;;;;29.63;27.83;;;;;;;;;;5083390;28;20432;-82
2023/05/08 13:37:16;;;;;;;28.73;26.73;;;;;;;;;;5082991;28;20404;-82
2023/05/08 13:39:43;;;;;;;30.10;27.93;;;;;;;;;;5083570;28;20536;-80
2023/05/08 13:42:10;;;;;;;27.03;25.47;;;;;;;;;;5083480;28;20438;-81
2023/05/08 13:44:37;;;;;;;27.60;25.90;;;;;;;;;;5084613;28;20446;-80
2023/05/08 13:47:04;;;;;;;27.70;26.00;;;;;;;;;;5082834;28;20438;-81
2023/05/08 13:49:31;;;;;;;28.27;26.57;;;;;;;;;;5083071;28;20547;-81
2023/05/08 13:51:58;;;;;;;27.80;26.07;;;;;;;;;;5089481;28;20424;-82
2023/05/08 13:54:27;;;;;;;27.90;26.10;;;;;;;;;;5089594;28;20427;-87
2023/05/08 13:56:54;;;;;;;26.60;25.00;;;;;;;;;;5089485;28;20432;-83
2023/05/08 13:59:21;;;;;;;28.63;26.50;;;;;;;;;;5091055;28;20851;-83
2023/05/08 14:01:48;;;;;;;28.27;26.57;;;;;;;;;;5091296;28;20529;-82
2023/05/08 14:04:15;;;;;;;27.27;25.60;;;;;;;;;;5091510;28;20419;-82
2023/05/08 14:06:42;;;;;;;26.97;25.37;;;;;;;;;;5090473;28;20489;-82
2023/05/08 14:09:09;;;;;;;27.37;25.77;;;;;;;;;;5090670;28;20527;-82
2023/05/08 14:11:37;;;;;;;27.23;25.47;;;;;;;;;;5090311;28;20766;-82
2023/05/08 14:14:04;;;;;;;29.10;27.30;;;;;;;;;;5089818;28;20447;-81
2023/05/08 14:16:31;;;;;;;26.93;25.43;;;;;;;;;;5089937;28;20506;-83
2023/05/08 14:18:58;;;;;;;27.90;26.27;;;;;;;;;;5091073;28;20496;-81
2023/05/08 14:21:26;;;;;;;27.33;25.73;;;;;;;;;;5091318;28;20424;-81
2023/05/08 14:23:53;;;;;;;29.17;27.27;;;;;;;;;;5091781;28;20426;-82